Time;durP1;ratioP1;P1;durP2;ratioP2;P2;SDS_P1;SDS_P2;PMS_P1;PMS_P2;Temp;Humidity;BMP_temperature;BMP_pressure;BME280_temperature;BME280_humidity;BME280_pressure;Samples;Min_cycle;Max_cycle;Signal;HPM_P1;HPM_P2
2022/07/15 00:00:28;;;;;;;2.60;0.80;;;18.10;63.60;;;;;;6204620;23;20009;-65
2022/07/15 00:02:54;;;;;;;3.00;0.60;;;18.00;63.90;;;;;;6215534;23;20004;-64
2022/07/15 00:05:20;;;;;;;0.60;0.50;;;17.90;63.90;;;;;;6216532;23;20000;-65
2022/07/15 00:07:46;;;;;;;3.72;0.52;;;17.80;64.40;;;;;;6205520;23;20004;-65
2022/07/15 00:10:14;;;;;;;1.83;0.70;;;17.80;64.40;;;;;;6206578;23;20104;-64
2022/07/15 00:12:48;;;;;;;4.28;0.70;;;17.70;64.90;;;;;;6206377;23;20092;-64
2022/07/15 00:15:14;;;;;;;2.08;0.60;;;17.70;65.00;;;;;;6216682;23;20011;-64
2022/07/15 00:17:43;;;;;;;2.30;0.90;;;17.70;65.40;;;;;;6206696;23;20027;-65
2022/07/15 00:20:12;;;;;;;2.53;0.60;;;17.60;65.40;;;;;;6211639;23;20012;-64
2022/07/15 00:22:39;;;;;;;0.90;0.50;;;17.70;65.80;;;;;;6208360;23;20133;-65
2022/07/15 00:25:05;;;;;;;6.43;0.90;;;17.60;65.60;;;;;;6206365;23;20032;-65
2022/07/15 00:27:31;;;;;;;2.05;0.82;;;17.70;65.50;;;;;;6205447;23;20084;-64
2022/07/15 00:29:57;;;;;;;1.63;0.57;;;17.70;65.80;;;;;;6203651;23;20015;-64
2022/07/15 00:32:22;;;;;;;2.15;0.80;;;17.60;66.10;;;;;;6215198;23;20004;-64
2022/07/15 00:34:50;;;;;;;2.10;0.60;;;17.70;66.10;;;;;;6205681;23;20036;-65
2022/07/15 00:37:17;;;;;;;3.05;0.80;;;17.70;66.00;;;;;;6205442;23;20328;-64
2022/07/15 00:39:43;;;;;;;2.70;0.80;;;17.60;66.20;;;;;;6215251;23;20078;-65
2022/07/15 00:42:43;;;;;;;1.52;0.80;;;17.60;66.40;;;;;;6205454;23;20019;-64
2022/07/15 00:44:59;;;;;;;3.25;0.75;;;17.50;66.90;;;;;;6204046;23;20012;-65
2022/07/15 00:47:25;;;;;;;1.83;0.68;;;17.50;67.40;;;;;;6205054;23;20004;-64
2022/07/15 00:49:51;;;;;;;4.00;0.95;;;17.60;67.40;;;;;;6203413;23;20509;-65
2022/07/15 00:52:19;;;;;;;1.25;0.55;;;17.60;67.00;;;;;;6215836;23;20008;-64
2022/07/15 00:54:49;;;;;;;1.23;0.80;;;17.70;66.90;;;;;;6205538;23;20517;-65
2022/07/15 00:57:16;;;;;;;2.17;0.80;;;17.60;66.90;;;;;;6203064;23;20012;-64
2022/07/15 00:59:44;;;;;;;2.22;0.70;;;17.60;67.10;;;;;;6216472;23;20012;-64
2022/07/15 01:02:11;;;;;;;1.30;0.70;;;17.70;67.40;;;;;;6203802;23;20228;-65
2022/07/15 01:04:38;;;;;;;2.03;1.13;;;17.60;67.30;;;;;;6204508;23;20016;-64
2022/07/15 01:07:04;;;;;;;3.90;0.98;;;17.60;67.10;;;;;;6204049;23;20435;-64
2022/07/15 01:09:30;;;;;;;2.75;1.05;;;17.70;67.40;;;;;;6215245;23;20011;-65
2022/07/15 01:11:56;;;;;;;3.50;1.00;;;17.70;66.90;;;;;;6204025;23;20063;-65
2022/07/15 01:14:22;;;;;;;2.75;0.80;;;17.70;66.70;;;;;;6203565;23;20036;-65
2022/07/15 01:16:49;;;;;;;1.85;0.82;;;17.70;67.30;;;;;;6203101;23;20039;-64
2022/07/15 01:19:16;;;;;;;3.50;0.90;;;17.60;67.20;;;;;;6203785;23;20131;-64
2022/07/15 01:21:45;;;;;;;3.65;0.70;;;17.70;66.80;;;;;;6204110;23;20442;-64
2022/07/15 01:24:12;;;;;;;2.25;0.70;;;17.60;66.60;;;;;;6203220;23;20000;-64
2022/07/15 01:26:47;;;;;;;3.55;0.70;;;17.60;67.00;;;;;;6215573;23;20020;-64
2022/07/15 01:29:16;;;;;;;4.50;0.80;;;17.60;67.40;;;;;;6204054;23;20083;-64
2022/07/15 01:31:42;;;;;;;4.13;0.90;;;17.50;67.50;;;;;;6203537;23;20016;-64
2022/07/15 01:34:09;;;;;;;2.28;0.88;;;17.50;67.80;;;;;;6206235;23;20580;-65
2022/07/15 01:36:35;;;;;;;0.75;0.45;;;17.50;67.40;;;;;;6203403;23;20009;-65
2022/07/15 01:39:03;;;;;;;2.85;0.90;;;17.50;67.80;;;;;;6203695;23;20370;-65
2022/07/15 01:41:29;;;;;;;3.15;0.88;;;17.40;68.40;;;;;;6203861;23;20008;-65
2022/07/15 01:43:55;;;;;;;4.30;0.80;;;17.30;68.50;;;;;;6204385;23;20009;-64
2022/07/15 01:46:21;;;;;;;2.85;1.00;;;17.30;68.30;;;;;;6203758;23;20008;-64
2022/07/15 01:51:47;;;;;;;3.10;0.82;;;17.40;68.40;;;;;;6204031;23;20131;-65
2022/07/15 01:54:13;;;;;;;2.80;0.75;;;17.30;68.30;;;;;;6215045;23;20102;-64
2022/07/15 01:56:39;;;;;;;1.80;0.93;;;17.30;68.60;;;;;;6203518;23;20040;-65
2022/07/15 01:59:05;;;;;;;3.35;0.80;;;17.20;68.80;;;;;;6205258;23;20031;-64
2022/07/15 02:01:32;;;;;;;3.85;0.85;;;17.10;69.40;;;;;;6203381;23;20023;-64
2022/07/15 02:04:02;;;;;;;2.75;0.90;;;17.10;69.70;;;;;;6203359;23;20104;-64
2022/07/15 02:06:29;;;;;;;2.05;0.88;;;17.00;70.10;;;;;;6203436;23;20036;-64
2022/07/15 02:08:56;;;;;;;2.00;0.90;;;17.00;70.50;;;;;;6202549;23;20028;-65
2022/07/15 02:11:24;;;;;;;1.73;0.70;;;16.90;70.50;;;;;;6203325;23;20437;-64
2022/07/15 02:13:51;;;;;;;1.23;0.93;;;16.90;71.10;;;;;;6203238;23;20005;-65
2022/07/15 02:16:18;;;;;;;2.00;0.90;;;16.90;71.00;;;;;;6202339;23;20701;-63
2022/07/15 02:18:44;;;;;;;3.83;1.17;;;16.90;71.10;;;;;;6202864;23;20035;-65
2022/07/15 02:21:10;;;;;;;3.60;1.73;;;17.00;71.20;;;;;;6202773;23;20047;-65
2022/07/15 02:23:36;;;;;;;2.50;0.88;;;17.00;71.00;;;;;;6202719;23;20321;-65
2022/07/15 02:26:01;;;;;;;2.85;0.88;;;17.00;71.10;;;;;;6214433;23;19997;-65
2022/07/15 02:28:27;;;;;;;3.60;0.90;;;17.00;70.80;;;;;;6202338;23;20013;-64
2022/07/15 02:30:54;;;;;;;4.20;1.10;;;17.00;70.70;;;;;;6214278;23;20469;-64
2022/07/15 02:33:20;;;;;;;5.80;1.08;;;17.00;70.60;;;;;;6202625;23;20099;-64
2022/07/15 02:35:46;;;;;;;1.10;0.70;;;17.00;70.90;;;;;;6214714;23;20402;-65
2022/07/15 02:38:12;;;;;;;4.65;1.30;;;17.10;70.60;;;;;;6201778;23;20013;-64
2022/07/15 02:40:38;;;;;;;3.55;1.05;;;17.10;70.30;;;;;;6202571;23;20016;-64
2022/07/15 02:43:04;;;;;;;3.03;0.90;;;17.10;70.70;;;;;;6202403;23;20008;-64
2022/07/15 02:45:35;;;;;;;3.92;1.25;;;17.10;70.10;;;;;;6202203;23;20099;-64
2022/07/15 02:48:06;;;;;;;3.50;0.85;;;17.10;70.20;;;;;;6202014;23;20388;-64
2022/07/15 02:50:35;;;;;;;2.13;0.70;;;17.00;70.80;;;;;;6202224;23;20012;-65
2022/07/15 02:53:03;;;;;;;3.15;1.00;;;17.00;70.80;;;;;;6202233;23;20013;-64
2022/07/15 02:55:29;;;;;;;4.65;0.93;;;16.90;71.00;;;;;;6201853;23;20043;-64
2022/07/15 02:57:55;;;;;;;3.35;1.10;;;16.90;71.10;;;;;;6201889;23;20027;-64
2022/07/15 03:00:22;;;;;;;1.90;0.80;;;16.90;71.50;;;;;;6202050;23;20023;-65
2022/07/15 03:02:54;;;;;;;4.45;1.20;;;16.80;71.70;;;;;;6202751;23;20099;-64
2022/07/15 03:05:20;;;;;;;2.85;0.90;;;16.80;71.40;;;;;;6202287;23;20015;-65
2022/07/15 03:07:46;;;;;;;2.38;1.05;;;16.80;71.60;;;;;;6202337;23;20115;-64
2022/07/15 03:10:15;;;;;;;2.53;0.93;;;16.80;71.90;;;;;;6202403;23;20008;-65
2022/07/15 03:12:41;;;;;;;5.50;1.42;;;16.70;71.70;;;;;;6202260;23;20095;-64
2022/07/15 03:15:08;;;;;;;3.08;0.90;;;16.70;71.80;;;;;;6214462;23;20839;-65
2022/07/15 03:17:35;;;;;;;2.17;0.90;;;16.70;72.20;;;;;;6201499;23;20012;-64
2022/07/15 03:20:01;;;;;;;2.35;1.00;;;16.70;72.10;;;;;;6202551;23;20099;-63
2022/07/15 03:22:29;;;;;;;7.30;1.55;;;16.70;72.60;;;;;;6202142;23;20012;-64
2022/07/15 03:24:55;;;;;;;4.07;1.05;;;16.70;72.70;;;;;;6202049;23;20015;-64
2022/07/15 03:27:21;;;;;;;3.38;1.05;;;16.80;72.20;;;;;;6213771;23;20586;-64
2022/07/15 03:29:49;;;;;;;2.92;1.15;;;16.80;72.30;;;;;;6203129;23;20005;-64
2022/07/15 03:32:15;;;;;;;4.63;1.55;;;16.80;72.30;;;;;;6203709;23;20431;-65
2022/07/15 03:34:43;;;;;;;2.60;0.85;;;16.80;72.40;;;;;;6201822;23;20028;-64
2022/07/15 03:37:09;;;;;;;3.47;1.13;;;16.80;72.60;;;;;;6202323;23;20472;-64
2022/07/15 03:39:35;;;;;;;4.65;1.20;;;16.70;72.60;;;;;;6201578;23;20040;-65
2022/07/15 03:42:00;;;;;;;4.25;1.10;;;16.70;72.90;;;;;;6203048;23;20017;-64
2022/07/15 03:44:29;;;;;;;1.05;0.68;;;16.70;73.10;;;;;;6202989;23;20008;-64
2022/07/15 03:46:55;;;;;;;3.72;1.30;;;16.60;73.20;;;;;;6202129;23;20099;-65
2022/07/15 03:49:21;;;;;;;4.28;1.63;;;16.70;74.20;;;;;;6202597;23;20032;-63
2022/07/15 03:51:47;;;;;;;3.67;1.10;;;16.70;73.10;;;;;;6203058;23;20009;-65
2022/07/15 03:54:13;;;;;;;5.80;1.00;;;16.80;72.90;;;;;;6201871;23;20044;-65
2022/07/15 03:56:42;;;;;;;6.60;1.40;;;16.90;72.70;;;;;;6202398;23;20443;-64
2022/07/15 03:59:08;;;;;;;2.47;0.82;;;16.90;72.40;;;;;;6203003;23;20009;-64
2022/07/15 04:01:34;;;;;;;4.18;1.23;;;16.90;72.20;;;;;;6201720;23;20005;-64
2022/07/15 04:04:00;;;;;;;4.15;0.98;;;16.90;71.90;;;;;;6214557;23;20137;-64
2022/07/15 04:06:26;;;;;;;2.85;0.90;;;16.90;72.10;;;;;;6201855;23;20062;-64
2022/07/15 04:08:52;;;;;;;3.92;1.33;;;16.90;71.80;;;;;;6201534;23;20014;-65
2022/07/15 04:11:18;;;;;;;2.40;0.88;;;16.90;71.90;;;;;;6202095;23;20024;-64
2022/07/15 04:13:44;;;;;;;6.57;1.05;;;16.90;72.00;;;;;;6202434;23;20035;-65
2022/07/15 04:16:14;;;;;;;5.28;1.30;;;16.90;72.20;;;;;;6201759;23;20043;-64
2022/07/15 04:18:39;;;;;;;7.43;1.20;;;16.90;72.50;;;;;;6201612;23;20036;-65
2022/07/15 04:21:06;;;;;;;4.18;1.20;;;16.80;72.00;;;;;;6202539;23;20362;-65
2022/07/15 04:23:32;;;;;;;4.82;1.40;;;16.80;72.00;;;;;;6202059;23;20079;-64
2022/07/15 04:25:58;;;;;;;7.55;1.27;;;16.80;72.10;;;;;;6202570;23;20036;-64
2022/07/15 04:28:24;;;;;;;5.22;1.42;;;16.80;71.90;;;;;;6201782;23;20015;-65
2022/07/15 04:30:51;;;;;;;2.83;1.20;;;16.90;72.10;;;;;;6202069;23;20024;-64
2022/07/15 04:33:19;;;;;;;5.50;1.25;;;17.00;71.80;;;;;;6202896;23;20005;-65
2022/07/15 04:35:45;;;;;;;4.60;1.40;;;17.00;71.40;;;;;;6202706;23;20047;-64
2022/07/15 04:38:11;;;;;;;3.70;1.10;;;17.00;71.60;;;;;;6202067;23;20036;-64
2022/07/15 04:40:39;;;;;;;4.85;1.13;;;17.00;71.30;;;;;;6202613;23;20024;-64
2022/07/15 04:43:06;;;;;;;7.80;1.20;;;17.00;71.20;;;;;;6202786;23;20128;-64
2022/07/15 04:45:32;;;;;;;6.00;1.42;;;17.10;71.20;;;;;;6202179;23;20028;-63
2022/07/15 04:47:58;;;;;;;5.53;1.02;;;17.20;71.00;;;;;;6206308;23;20076;-64
2022/07/15 04:50:45;;;;;;;5.30;0.98;;;17.30;70.90;;;;;;6206531;23;20035;-64
2022/07/15 04:53:11;;;;;;;8.27;1.40;;;17.30;70.20;;;;;;6180121;23;20031;-64
2022/07/15 04:55:38;;;;;;;2.85;1.27;;;17.40;70.20;;;;;;6203810;23;20009;-64
2022/07/15 04:58:04;;;;;;;2.90;1.15;;;17.40;70.10;;;;;;6203092;23;20059;-64
2022/07/15 05:00:32;;;;;;;10.13;1.90;;;17.50;69.80;;;;;;6205109;23;20694;-64
2022/07/15 05:02:58;;;;;;;4.07;1.10;;;17.50;69.90;;;;;;6203676;23;20078;-65
2022/07/15 05:05:26;;;;;;;10.27;1.52;;;17.60;69.50;;;;;;6203138;23;20498;-64
2022/07/15 05:07:52;;;;;;;5.05;1.20;;;17.60;69.40;;;;;;6202389;23;20027;-64
2022/07/15 05:10:18;;;;;;;3.85;1.08;;;17.60;69.60;;;;;;6203769;23;20134;-65
2022/07/15 05:12:51;;;;;;;4.93;1.67;;;17.70;69.80;;;;;;6203420;23;20162;-64
2022/07/15 05:15:17;;;;;;;3.75;1.13;;;17.80;69.20;;;;;;6203046;23;20062;-64
2022/07/15 05:17:43;;;;;;;3.33;0.95;;;17.80;68.70;;;;;;6203215;23;20027;-64
2022/07/15 05:20:16;;;;;;;5.45;1.40;;;17.90;68.80;;;;;;6203935;23;20009;-64
2022/07/15 05:22:41;;;;;;;6.95;1.38;;;18.00;68.50;;;;;;6202854;23;20121;-64
2022/07/15 05:25:08;;;;;;;5.63;1.23;;;18.00;69.20;;;;;;6203074;23;20115;-64
2022/07/15 05:27:34;;;;;;;5.80;1.17;;;18.00;68.30;;;;;;6202797;23;20005;-64
2022/07/15 05:30:01;;;;;;;4.88;1.10;;;18.10;67.90;;;;;;6202537;23;20016;-65
2022/07/15 05:32:31;;;;;;;3.60;1.20;;;18.10;67.50;;;;;;6203159;23;20004;-64
2022/07/15 05:35:04;;;;;;;6.57;1.27;;;18.10;67.40;;;;;;6203408;23;20009;-64
2022/07/15 05:37:30;;;;;;;6.03;1.52;;;18.20;67.40;;;;;;6214160;23;20008;-64
2022/07/15 05:39:56;;;;;;;3.88;1.10;;;18.20;67.10;;;;;;6203693;23;20431;-64
2022/07/15 05:42:28;;;;;;;3.63;0.90;;;18.20;66.60;;;;;;6203353;23;20431;-64
2022/07/15 05:44:55;;;;;;;5.20;1.33;;;18.10;67.00;;;;;;6202944;23;20487;-64
2022/07/15 05:47:22;;;;;;;4.60;1.20;;;18.10;67.20;;;;;;6202312;23;20370;-64
2022/07/15 05:49:48;;;;;;;5.57;1.27;;;18.10;67.40;;;;;;6203468;23;20005;-65
2022/07/15 05:52:14;;;;;;;4.40;0.93;;;18.20;67.30;;;;;;6177592;23;20024;-64
2022/07/15 05:54:41;;;;;;;3.95;1.23;;;18.20;67.50;;;;;;6202959;23;20012;-64
2022/07/15 05:57:09;;;;;;;4.88;1.30;;;18.30;66.70;;;;;;6202042;23;20104;-64
2022/07/15 05:59:34;;;;;;;2.03;1.05;;;18.40;66.30;;;;;;6201934;23;20032;-64
2022/07/15 06:02:01;;;;;;;1.67;0.90;;;18.40;66.40;;;;;;6202825;23;20012;-65
2022/07/15 06:04:27;;;;;;;4.93;1.48;;;18.40;66.50;;;;;;6204392;23;20070;-64
2022/07/15 06:06:56;;;;;;;4.60;1.15;;;18.50;66.30;;;;;;6201706;23;20008;-64
2022/07/15 06:09:22;;;;;;;3.65;0.75;;;18.60;65.90;;;;;;6202360;23;20016;-64
2022/07/15 06:11:48;;;;;;;6.45;1.17;;;18.70;64.80;;;;;;6204248;23;20019;-65
2022/07/15 06:14:15;;;;;;;3.75;0.73;;;18.80;65.00;;;;;;6201377;23;20013;-64
2022/07/15 06:16:41;;;;;;;2.67;0.73;;;18.90;64.60;;;;;;6200987;23;20736;-65
2022/07/15 06:19:10;;;;;;;3.78;0.95;;;19.00;64.10;;;;;;6202238;23;20016;-65
2022/07/15 06:21:36;;;;;;;4.65;1.42;;;19.20;63.90;;;;;;6203670;23;20028;-64
2022/07/15 06:24:03;;;;;;;3.22;0.95;;;19.30;63.20;;;;;;6203790;23;20351;-64
2022/07/15 06:26:29;;;;;;;4.35;1.08;;;19.30;63.30;;;;;;6203533;23;20020;-64
2022/07/15 06:28:54;;;;;;;5.13;1.20;;;19.40;63.90;;;;;;6212956;23;20001;-64
2022/07/15 06:31:21;;;;;;;4.75;1.38;;;19.40;63.60;;;;;;6201644;23;20039;-64
2022/07/15 06:33:46;;;;;;;6.55;1.15;;;19.50;63.10;;;;;;6203740;23;20028;-64
2022/07/15 06:36:13;;;;;;;5.22;1.10;;;19.60;63.30;;;;;;6200475;23;20040;-64
2022/07/15 06:38:42;;;;;;;3.35;1.02;;;19.70;62.70;;;;;;6201177;23;20328;-64
2022/07/15 06:41:08;;;;;;;6.20;1.30;;;19.90;62.00;;;;;;6202096;23;20031;-63
2022/07/15 06:43:34;;;;;;;3.33;0.93;;;19.90;62.30;;;;;;6200835;23;20059;-64
2022/07/15 06:46:11;;;;;;;4.80;0.73;;;20.00;61.40;;;;;;6201736;23;20328;-64
2022/07/15 06:48:40;;;;;;;3.45;0.80;;;20.10;61.60;;;;;;6176340;23;20008;-64
2022/07/15 06:51:06;;;;;;;3.83;1.35;;;20.20;61.80;;;;;;6202798;23;20012;-64
2022/07/15 06:53:32;;;;;;;2.95;0.93;;;20.30;60.70;;;;;;6200931;23;20009;-63
2022/07/15 06:55:58;;;;;;;3.88;1.00;;;20.30;60.30;;;;;;6202024;23;20008;-63
2022/07/15 06:58:24;;;;;;;4.45;1.10;;;20.20;60.40;;;;;;6199439;23;20009;-66
2022/07/15 07:00:50;;;;;;;8.00;1.10;;;20.00;60.80;;;;;;6201502;23;20462;-69
2022/07/15 07:03:15;;;;;;;6.28;1.00;;;19.90;60.90;;;;;;6213398;23;20050;-64
2022/07/15 07:05:42;;;;;;;3.20;1.48;;;19.70;62.80;;;;;;6199062;23;20004;-64
2022/07/15 07:08:07;;;;;;;8.18;1.75;;;19.70;62.20;;;;;;6199865;23;20748;-64
2022/07/15 07:10:35;;;;;;;4.45;1.02;;;19.60;61.60;;;;;;6200110;23;20098;-64
2022/07/15 07:13:00;;;;;;;8.27;2.05;;;19.50;62.00;;;;;;6200089;23;20020;-64
2022/07/15 07:15:26;;;;;;;8.93;2.47;;;19.50;62.90;;;;;;6212337;23;20020;-64
2022/07/15 07:17:52;;;;;;;5.97;1.80;;;19.60;66.40;;;;;;6201044;23;20048;-64
2022/07/15 07:20:18;;;;;;;6.93;1.90;;;19.60;66.40;;;;;;6201810;23;20013;-61
2022/07/15 07:22:44;;;;;;;2.35;0.73;;;19.60;68.90;;;;;;6203322;23;20085;-65
2022/07/15 07:25:09;;;;;;;3.17;0.73;;;19.70;63.70;;;;;;6203082;23;20342;-64
2022/07/15 07:27:35;;;;;;;1.88;0.80;;;19.80;60.80;;;;;;6201931;23;20013;-66
2022/07/15 07:30:04;;;;;;;2.50;0.68;;;19.80;61.70;;;;;;6203185;23;20004;-65
2022/07/15 07:32:30;;;;;;;6.78;1.30;;;19.80;62.40;;;;;;6201428;23;20009;-64
2022/07/15 07:34:56;;;;;;;7.22;4.55;;;19.90;60.50;;;;;;6202474;23;20015;-65
2022/07/15 07:37:23;;;;;;;10.38;5.07;;;20.00;61.50;;;;;;6202723;23;20335;-65
2022/07/15 07:39:49;;;;;;;4.18;1.23;;;20.10;60.10;;;;;;6203102;23;20005;-66
2022/07/15 07:42:16;;;;;;;7.20;3.50;;;20.20;58.70;;;;;;6202679;23;20012;-65
2022/07/15 07:44:42;;;;;;;9.60;4.00;;;20.20;59.00;;;;;;6202920;23;20009;-65
2022/07/15 07:47:08;;;;;;;4.05;1.70;;;20.30;58.80;;;;;;6202051;23;20008;-65
2022/07/15 07:49:34;;;;;;;10.93;3.40;;;20.30;56.80;;;;;;6211983;23;20087;-64
2022/07/15 07:52:00;;;;;;;7.43;3.05;;;20.30;58.60;;;;;;6199206;23;20411;-67
2022/07/15 07:54:25;;;;;;;4.25;2.03;;;20.30;58.50;;;;;;6212346;23;20012;-66
2022/07/15 07:56:51;;;;;;;7.90;2.20;;;20.50;57.10;;;;;;6211549;23;20084;-66
2022/07/15 07:59:17;;;;;;;2.75;0.90;;;20.60;57.90;;;;;;6202077;23;20016;-65
2022/07/15 08:01:43;;;;;;;2.95;1.15;;;20.70;55.10;;;;;;6202717;23;20060;-64
2022/07/15 08:04:10;;;;;;;5.57;1.05;;;20.90;56.10;;;;;;6201714;23;20359;-64
2022/07/15 08:06:38;;;;;;;3.15;0.90;;;21.00;55.30;;;;;;6201933;23;20008;-66
2022/07/15 08:09:04;;;;;;;4.78;2.00;;;20.90;56.10;;;;;;6201590;23;20047;-65
2022/07/15 08:11:30;;;;;;;5.55;2.70;;;20.70;56.00;;;;;;6211919;23;20012;-65
2022/07/15 08:13:56;;;;;;;5.07;1.20;;;20.70;56.00;;;;;;6202235;23;20009;-64
2022/07/15 08:16:22;;;;;;;6.18;1.80;;;20.60;55.40;;;;;;6211903;23;20004;-68
2022/07/15 08:18:48;;;;;;;5.55;1.73;;;20.50;56.50;;;;;;6200966;23;20371;-64
2022/07/15 08:21:14;;;;;;;4.28;1.02;;;20.50;56.60;;;;;;6200607;23;20098;-64
2022/07/15 08:23:40;;;;;;;3.40;0.80;;;20.40;56.00;;;;;;6202547;23;20008;-65
2022/07/15 08:26:08;;;;;;;4.40;1.80;;;20.30;56.60;;;;;;6203250;23;20083;-64
2022/07/15 08:28:34;;;;;;;6.13;2.10;;;20.10;56.70;;;;;;6200762;23;20262;-66
2022/07/15 08:31:00;;;;;;;10.90;3.45;;;19.90;57.00;;;;;;6214233;23;20604;-68
2022/07/15 08:33:25;;;;;;;8.82;1.50;;;19.80;58.00;;;;;;6202607;23;20605;-66
2022/07/15 08:35:51;;;;;;;4.47;1.75;;;19.70;57.60;;;;;;6204435;23;20055;-65
2022/07/15 08:38:17;;;;;;;4.43;1.30;;;19.70;58.50;;;;;;6202158;23;20070;-64
2022/07/15 08:40:43;;;;;;;3.92;1.00;;;19.70;58.50;;;;;;6201576;23;20713;-65
2022/07/15 08:43:11;;;;;;;5.00;1.98;;;19.70;58.50;;;;;;6213670;23;20008;-65
2022/07/15 08:45:38;;;;;;;2.38;1.10;;;19.90;58.40;;;;;;6203276;23;20066;-64
2022/07/15 08:48:05;;;;;;;6.30;2.13;;;20.10;56.60;;;;;;6203214;23;20004;-68
2022/07/15 08:50:32;;;;;;;3.40;1.70;;;20.20;57.60;;;;;;6212674;23;20004;-64
2022/07/15 08:52:58;;;;;;;4.65;1.27;;;20.40;57.70;;;;;;6203721;23;20533;-63
2022/07/15 08:55:24;;;;;;;3.85;1.30;;;20.50;56.60;;;;;;6214293;23;20001;-64
2022/07/15 08:57:52;;;;;;;7.30;1.02;;;20.60;56.30;;;;;;6213910;23;20004;-67
2022/07/15 09:00:28;;;;;;;5.15;0.98;;;20.70;56.60;;;;;;6203852;23;20012;-68
2022/07/15 09:02:59;;;;;;;5.10;0.80;;;20.80;56.90;;;;;;6202886;23;20005;-62
2022/07/15 09:05:29;;;;;;;2.00;0.60;;;20.90;55.50;;;;;;6214616;23;20008;-66
2022/07/15 09:08:10;;;;;;;4.88;0.98;;;20.90;56.10;;;;;;6203718;23;20013;-73
2022/07/15 09:10:44;;;;;;;3.95;1.00;;;21.00;54.40;;;;;;6203391;23;20012;-75
2022/07/15 09:13:26;;;;;;;5.75;0.93;;;21.00;54.20;;;;;;6214194;23;20012;-71
2022/07/15 09:15:52;;;;;;;5.97;0.63;;;20.90;54.60;;;;;;6203538;23;20024;-70
2022/07/15 09:18:23;;;;;;;5.63;0.80;;;20.60;54.20;;;;;;6203091;23;20007;-70
2022/07/15 09:20:49;;;;;;;3.17;0.98;;;20.50;55.10;;;;;;6202676;23;20032;-71
2022/07/15 09:23:20;;;;;;;3.40;1.15;;;20.20;56.50;;;;;;6203748;23;20028;-70
2022/07/15 09:25:49;;;;;;;7.60;3.60;;;20.30;56.60;;;;;;6201207;23;20089;-70
2022/07/15 09:28:15;;;;;;;6.20;2.10;;;20.40;57.20;;;;;;6212660;23;20005;-70
2022/07/15 09:33:43;;;;;;;3.22;1.67;;;20.60;56.80;;;;;;6212719;23;20067;-70
2022/07/15 09:36:12;;;;;;;4.28;1.33;;;20.70;56.40;;;;;;6213827;23;20019;-70
2022/07/15 09:38:46;;;;;;;4.50;0.85;;;20.70;56.10;;;;;;6204121;23;20048;-70
2022/07/15 09:41:21;;;;;;;6.25;0.93;;;20.80;55.30;;;;;;6213913;23;20802;-70
2022/07/15 09:43:52;;;;;;;3.22;0.88;;;20.70;55.50;;;;;;6203994;23;20040;-70
2022/07/15 09:46:19;;;;;;;1.75;0.60;;;20.70;55.90;;;;;;6204604;23;20591;-71
2022/07/15 09:48:47;;;;;;;4.43;0.88;;;20.70;56.20;;;;;;6201650;23;20012;-72
2022/07/15 09:51:15;;;;;;;8.95;4.55;;;20.80;56.10;;;;;;6214701;23;20099;-72
2022/07/15 09:53:41;;;;;;;10.63;2.20;;;20.90;56.10;;;;;;6204878;23;20089;-73
2022/07/15 09:56:10;;;;;;;3.67;1.65;;;20.90;55.70;;;;;;6203659;23;20004;-72
2022/07/15 09:58:41;;;;;;;4.85;1.80;;;21.00;55.50;;;;;;6203983;23;20012;-72
2022/07/15 10:01:09;;;;;;;3.28;1.10;;;21.10;54.50;;;;;;6203860;23;20124;-73
2022/07/15 10:03:36;;;;;;;3.97;0.90;;;21.30;54.30;;;;;;6203765;23;20284;-66
2022/07/15 10:06:02;;;;;;;2.85;1.55;;;21.30;53.70;;;;;;6204254;23;20007;-68
2022/07/15 10:08:30;;;;;;;6.97;1.50;;;21.30;54.70;;;;;;6203761;23;20013;-70
2022/07/15 10:10:58;;;;;;;3.65;1.38;;;21.30;54.90;;;;;;6203517;23;20036;-71
2022/07/15 10:13:39;;;;;;;5.50;1.75;;;21.40;55.30;;;;;;6213202;23;20005;-70
2022/07/15 10:16:27;;;;;;;2.58;1.02;;;21.50;54.50;;;;;;6203518;23;20023;-70
2022/07/15 10:19:30;;;;;;;6.30;1.60;;;21.60;53.80;;;;;;6203158;23;20043;-69
2022/07/15 10:22:19;;;;;;;3.58;0.82;;;21.70;52.40;;;;;;6202479;23;20098;-70
2022/07/15 10:25:12;;;;;;;4.03;1.48;;;21.70;51.80;;;;;;6184226;23;20023;-73
2022/07/15 10:27:46;;;;;;;1.98;0.77;;;21.70;53.00;;;;;;6189678;23;20020;-72
2022/07/15 10:30:18;;;;;;;2.85;1.20;;;21.70;53.00;;;;;;6203641;23;20070;-72
2022/07/15 10:33:02;;;;;;;4.15;1.40;;;21.80;52.50;;;;;;6212134;23;20035;-72
2022/07/15 10:35:41;;;;;;;2.60;1.35;;;21.80;52.20;;;;;;6214091;23;20643;-72
2022/07/15 10:38:22;;;;;;;2.15;0.93;;;21.80;52.10;;;;;;6203544;23;20012;-72
2022/07/15 10:41:07;;;;;;;5.55;0.93;;;21.80;50.60;;;;;;6203290;23;20016;-74
2022/07/15 10:43:47;;;;;;;3.30;0.98;;;21.70;49.80;;;;;;6203793;23;20087;-74
2022/07/15 10:46:15;;;;;;;5.03;1.25;;;21.60;49.40;;;;;;6203557;23;20015;-74
2022/07/15 10:48:43;;;;;;;4.78;1.00;;;21.40;50.40;;;;;;6202144;23;20516;-73
2022/07/15 10:51:09;;;;;;;3.22;0.70;;;21.40;50.60;;;;;;6203763;23;20048;-72
2022/07/15 10:53:44;;;;;;;4.97;0.98;;;21.40;49.10;;;;;;6213736;23;20035;-73
2022/07/15 10:56:30;;;;;;;1.92;0.45;;;21.40;48.70;;;;;;6214278;23;20019;-72
2022/07/15 10:59:16;;;;;;;1.02;0.57;;;21.40;49.40;;;;;;6214210;23;20425;-70
2022/07/15 11:01:45;;;;;;;4.70;0.60;;;21.40;49.30;;;;;;6203610;23;20019;-71
2022/07/15 11:04:19;;;;;;;6.30;0.80;;;21.60;49.40;;;;;;6204297;23;20019;-71
2022/07/15 11:07:11;;;;;;;2.13;0.77;;;21.80;49.00;;;;;;6213351;23;20008;-71
2022/07/15 11:09:55;;;;;;;2.03;0.60;;;21.90;47.90;;;;;;6203216;23;20017;-71
2022/07/15 11:12:43;;;;;;;4.15;0.85;;;22.10;48.40;;;;;;6203681;23;20016;-71
2022/07/15 11:15:14;;;;;;;4.75;1.00;;;22.10;48.20;;;;;;6203638;23;20016;-70
2022/07/15 11:17:47;;;;;;;3.38;0.77;;;21.90;48.30;;;;;;6202489;23;20019;-72
2022/07/15 11:20:21;;;;;;;2.15;0.60;;;21.90;48.60;;;;;;6203127;23;20013;-72
2022/07/15 11:22:49;;;;;;;1.40;0.70;;;21.80;49.30;;;;;;6203211;23;20016;-63
2022/07/15 11:25:39;;;;;;;3.47;0.70;;;21.80;49.00;;;;;;6203357;23;20000;-63
2022/07/15 11:28:05;;;;;;;2.88;0.70;;;21.90;49.40;;;;;;6202646;23;20008;-63
2022/07/15 11:30:48;;;;;;;2.80;0.55;;;22.00;48.80;;;;;;6203550;23;20017;-64
2022/07/15 11:33:15;;;;;;;2.90;0.60;;;22.10;48.80;;;;;;6212273;23;20399;-64
2022/07/15 11:35:49;;;;;;;4.03;0.82;;;22.10;48.70;;;;;;6212858;23;20039;-64
2022/07/15 11:38:15;;;;;;;1.83;0.75;;;22.10;48.30;;;;;;6211384;23;20361;-65
2022/07/15 11:46:17;;;;;;;3.28;1.00;;;22.10;47.60;;;;;;6200721;23;20009;-65
2022/07/15 11:48:43;;;;;;;3.60;0.85;;;22.10;48.50;;;;;;6200412;23;20466;-65
2022/07/15 11:51:10;;;;;;;2.60;0.60;;;22.10;48.80;;;;;;6200734;23;20001;-65
2022/07/15 11:53:42;;;;;;;2.88;0.90;;;22.10;48.50;;;;;;6212337;23;20013;-65
2022/07/15 11:56:11;;;;;;;2.42;1.15;;;22.10;49.00;;;;;;6213707;23;20656;-65
2022/07/15 11:58:44;;;;;;;3.13;0.73;;;22.10;48.30;;;;;;6214511;23;20020;-65
2022/07/15 12:01:16;;;;;;;2.47;0.60;;;22.10;48.20;;;;;;6205434;23;20016;-65
2022/07/15 12:03:47;;;;;;;2.05;0.50;;;22.00;48.10;;;;;;6205362;23;20028;-65
2022/07/15 12:06:24;;;;;;;2.53;0.70;;;22.00;48.30;;;;;;6205934;23;20013;-65
2022/07/15 12:08:57;;;;;;;1.75;0.40;;;22.00;48.30;;;;;;6214811;23;20182;-65
2022/07/15 12:11:26;;;;;;;2.08;0.60;;;22.00;48.50;;;;;;6205964;23;20435;-64
2022/07/15 12:14:09;;;;;;;3.75;0.60;;;22.00;47.90;;;;;;6205264;23;20014;-65
2022/07/15 12:16:52;;;;;;;2.22;0.70;;;22.00;47.50;;;;;;6205080;23;20733;-65
2022/07/15 12:19:19;;;;;;;4.00;0.70;;;22.00;47.00;;;;;;6215703;23;20009;-64
2022/07/15 12:21:51;;;;;;;1.85;0.73;;;21.80;48.60;;;;;;6205802;23;20004;-65
2022/07/15 12:24:19;;;;;;;2.88;0.40;;;21.80;48.50;;;;;;6204845;23;20431;-65
2022/07/15 12:26:50;;;;;;;1.13;0.63;;;21.80;48.60;;;;;;6205203;23;20016;-65
2022/07/15 12:29:19;;;;;;;3.72;0.70;;;21.90;48.40;;;;;;6215484;23;20066;-65
2022/07/15 12:31:59;;;;;;;2.58;0.68;;;21.90;48.40;;;;;;6214417;23;20100;-65
2022/07/15 12:34:47;;;;;;;6.07;0.88;;;21.90;47.80;;;;;;6205501;23;20028;-63
2022/07/15 12:37:15;;;;;;;2.45;0.32;;;21.80;47.60;;;;;;6204502;23;20354;-64
2022/07/15 12:40:01;;;;;;;6.00;0.52;;;21.80;49.00;;;;;;6215170;23;20012;-65
2022/07/15 12:42:32;;;;;;;2.95;0.55;;;21.90;48.00;;;;;;6204525;23;20012;-65
2022/07/15 12:45:19;;;;;;;1.95;0.43;;;22.10;47.90;;;;;;6205533;23;20071;-65
2022/07/15 12:48:04;;;;;;;4.18;0.40;;;22.20;47.60;;;;;;6204446;23;20001;-65
2022/07/15 12:50:36;;;;;;;0.65;0.30;;;22.10;47.80;;;;;;6205577;23;20012;-65
2022/07/15 12:53:03;;;;;;;36.20;19.77;;;22.10;47.80;;;;;;6214531;23;20012;-65
2022/07/15 12:55:41;;;;;;;4.53;2.10;;;22.10;48.30;;;;;;6205080;23;20629;-64
2022/07/15 12:58:09;;;;;;;1.77;0.80;;;22.10;48.70;;;;;;6204317;23;20004;-64
2022/07/15 13:00:36;;;;;;;3.30;0.70;;;22.20;49.00;;;;;;6214438;23;20008;-65
2022/07/15 13:03:04;;;;;;;2.33;0.75;;;22.40;48.80;;;;;;6204824;23;20442;-64
2022/07/15 13:05:44;;;;;;;5.72;1.10;;;22.50;48.60;;;;;;6204323;23;20059;-64